Time;durP1;ratioP1;P1;durP2;ratioP2;P2;SDS_P1;SDS_P2;PMS_P1;PMS_P2;Temp;Humidity;BMP_temperature;BMP_pressure;BME280_temperature;BME280_humidity;BME280_pressure;Samples;Min_cycle;Max_cycle;Signal;HPM_P1;HPM_P2
2022/03/14 00:00:16;;;;;;;4.05;2.10;;;11.20;99.90;;;;;;5024405;28;20029;-58
2022/03/14 00:02:42;;;;;;;4.65;2.20;;;11.10;99.90;;;;;;5030270;28;20055;-56
2022/03/14 00:05:14;;;;;;;2.63;2.10;;;11.10;99.90;;;;;;5032236;28;20025;-57
2022/03/14 00:07:41;;;;;;;2.83;2.15;;;11.20;99.90;;;;;;5023757;28;20048;-58
2022/03/14 00:10:07;;;;;;;2.97;2.25;;;11.10;99.90;;;;;;5022537;28;20026;-57
2022/03/14 00:12:33;;;;;;;3.35;2.30;;;11.00;99.90;;;;;;5030050;28;20030;-58
2022/03/14 00:14:59;;;;;;;2.50;2.10;;;10.90;99.90;;;;;;5023559;28;20068;-57
2022/03/14 00:17:26;;;;;;;3.38;2.00;;;10.90;99.90;;;;;;5026879;28;20022;-57
2022/03/14 00:19:53;;;;;;;2.95;1.98;;;11.00;99.90;;;;;;5032453;28;20017;-57
2022/03/14 00:22:20;;;;;;;4.63;2.10;;;11.00;99.90;;;;;;5033614;28;20026;-57
2022/03/14 00:24:46;;;;;;;3.22;2.38;;;11.00;99.90;;;;;;5024882;28;20022;-58
2022/03/14 00:27:12;;;;;;;2.75;2.00;;;11.00;99.90;;;;;;5025939;28;20029;-57
2022/03/14 00:29:37;;;;;;;2.63;2.15;;;11.00;99.90;;;;;;5026881;28;20091;-56
2022/03/14 00:32:03;;;;;;;2.90;2.20;;;10.90;99.90;;;;;;5026613;28;20056;-56
2022/03/14 00:34:29;;;;;;;3.72;2.20;;;11.00;99.90;;;;;;5024245;28;20038;-57
2022/03/14 00:36:54;;;;;;;2.67;2.03;;;11.00;99.90;;;;;;5025425;28;20025;-56
2022/03/14 00:39:20;;;;;;;3.38;2.03;;;10.90;99.90;;;;;;5041798;28;20338;-56
2022/03/14 00:41:46;;;;;;;4.45;2.13;;;11.00;99.90;;;;;;5024337;28;20024;-56
2022/03/14 00:44:16;;;;;;;3.60;1.92;;;10.90;99.90;;;;;;5028256;28;20037;-57
2022/03/14 00:46:43;;;;;;;5.07;2.15;;;11.00;99.90;;;;;;5031266;28;20041;-57
2022/03/14 00:49:09;;;;;;;2.67;2.00;;;11.10;99.90;;;;;;5024471;28;20101;-56
2022/03/14 00:51:35;;;;;;;3.50;2.58;;;11.10;99.90;;;;;;5026622;28;20030;-56
2022/03/14 00:54:04;;;;;;;3.03;2.38;;;11.10;99.90;;;;;;5025806;28;20786;-57
2022/03/14 00:56:31;;;;;;;2.63;2.22;;;11.10;99.90;;;;;;5027530;28;20045;-56
2022/03/14 00:58:59;;;;;;;2.30;2.08;;;11.00;99.90;;;;;;5025327;28;20035;-57
2022/03/14 01:01:26;;;;;;;2.45;2.15;;;10.90;99.90;;;;;;5028044;28;20021;-57
2022/03/14 01:03:52;;;;;;;2.70;2.22;;;10.90;99.90;;;;;;5026798;28;20074;-55
2022/03/14 01:06:18;;;;;;;3.85;2.55;;;10.80;99.90;;;;;;5027568;28;20328;-56
2022/03/14 01:08:43;;;;;;;2.53;2.13;;;11.30;99.90;;;;;;5024848;28;20033;-57
2022/03/14 01:11:09;;;;;;;2.67;2.22;;;10.90;99.90;;;;;;5023188;28;20041;-55
2022/03/14 01:13:35;;;;;;;3.35;2.30;;;11.00;99.90;;;;;;5030350;28;20138;-56
2022/03/14 01:16:01;;;;;;;3.58;2.20;;;10.90;99.90;;;;;;5028306;28;20037;-56
2022/03/14 01:18:27;;;;;;;2.83;2.35;;;11.00;99.90;;;;;;5029394;28;20036;-56
2022/03/14 01:20:52;;;;;;;4.72;2.65;;;10.90;99.90;;;;;;5027050;28;20029;-57
2022/03/14 01:23:18;;;;;;;2.80;2.38;;;10.90;99.90;;;;;;5023100;28;20029;-56
2022/03/14 01:25:45;;;;;;;4.07;2.25;;;11.10;99.90;;;;;;5024213;28;20037;-57
2022/03/14 01:28:11;;;;;;;4.82;2.40;;;10.90;99.90;;;;;;5027097;28;20559;-55
2022/03/14 01:30:37;;;;;;;4.05;2.55;;;11.10;99.90;;;;;;5026748;28;20090;-56
2022/03/14 01:33:03;;;;;;;3.13;2.50;;;11.20;99.90;;;;;;5023926;28;20036;-57
2022/03/14 01:35:29;;;;;;;3.83;2.60;;;11.10;99.90;;;;;;5023300;28;20447;-57
2022/03/14 01:37:55;;;;;;;4.18;2.40;;;10.90;99.90;;;;;;5027518;28;20021;-55
2022/03/14 01:40:21;;;;;;;5.18;2.72;;;10.80;99.90;;;;;;5031487;28;20491;-56
2022/03/14 01:42:47;;;;;;;2.90;2.50;;;10.80;99.90;;;;;;5031916;28;20029;-57
2022/03/14 01:45:14;;;;;;;3.35;2.50;;;10.80;99.90;;;;;;5026319;28;20036;-56
2022/03/14 01:47:41;;;;;;;4.18;2.78;;;10.80;99.90;;;;;;5033162;28;20679;-57
2022/03/14 01:50:08;;;;;;;3.38;2.55;;;10.80;99.90;;;;;;5028560;28;20261;-56
2022/03/14 01:52:34;;;;;;;3.10;2.50;;;10.90;99.90;;;;;;5033028;28;20561;-56
2022/03/14 01:55:01;;;;;;;3.15;2.58;;;10.70;99.90;;;;;;5027763;28;20029;-55
2022/03/14 01:57:28;;;;;;;3.28;2.40;;;10.80;99.90;;;;;;5034019;28;20056;-55
2022/03/14 01:59:54;;;;;;;3.72;2.75;;;11.00;99.90;;;;;;5029837;28;20541;-57
2022/03/14 02:02:20;;;;;;;7.63;2.60;;;11.10;99.90;;;;;;5027029;28;20033;-57
2022/03/14 02:04:47;;;;;;;4.32;2.70;;;10.90;99.90;;;;;;5028686;28;20593;-56
2022/03/14 02:07:12;;;;;;;3.75;2.70;;;10.80;99.90;;;;;;5034422;28;20076;-57
2022/03/14 02:09:38;;;;;;;3.20;2.60;;;10.70;99.90;;;;;;5027736;28;20025;-57
2022/03/14 02:12:03;;;;;;;7.13;2.90;;;10.80;99.90;;;;;;5025852;28;20037;-57
2022/03/14 02:14:30;;;;;;;3.30;2.85;;;10.80;99.90;;;;;;5024371;28;20116;-57
2022/03/14 02:16:56;;;;;;;4.13;3.13;;;10.70;99.90;;;;;;5027527;28;20049;-57
2022/03/14 02:19:21;;;;;;;5.55;3.10;;;10.70;99.90;;;;;;5026882;28;20060;-58
2022/03/14 02:21:47;;;;;;;7.65;3.25;;;10.90;99.90;;;;;;5032710;28;20022;-59
2022/03/14 02:24:12;;;;;;;5.38;3.17;;;10.80;99.90;;;;;;5028129;28;20022;-60
2022/03/14 02:26:39;;;;;;;4.45;3.30;;;10.70;99.90;;;;;;5026085;28;20144;-59
2022/03/14 02:29:05;;;;;;;4.68;3.50;;;10.30;99.90;;;;;;5025240;28;20697;-60
2022/03/14 02:31:31;;;;;;;4.72;3.42;;;10.70;99.90;;;;;;5026787;28;20037;-60
2022/03/14 02:33:57;;;;;;;6.03;3.67;;;10.90;99.90;;;;;;5027347;28;20439;-59
2022/03/14 02:36:22;;;;;;;4.63;3.92;;;10.70;99.90;;;;;;5022848;28;20029;-59
2022/03/14 02:38:48;;;;;;;6.60;4.10;;;10.70;99.90;;;;;;5029379;28;20025;-60
2022/03/14 02:41:13;;;;;;;5.07;3.97;;;10.70;99.90;;;;;;5028517;28;20068;-61
2022/03/14 02:43:39;;;;;;;5.78;4.03;;;10.60;99.90;;;;;;5027735;28;20021;-61
2022/03/14 02:46:05;;;;;;;4.65;3.80;;;10.60;99.90;;;;;;5041397;28;20138;-62
2022/03/14 02:48:30;;;;;;;7.10;4.05;;;10.60;99.90;;;;;;5026541;28;20037;-61
2022/03/14 02:50:56;;;;;;;7.50;4.32;;;10.50;99.90;;;;;;5027094;28;20035;-61
2022/03/14 02:53:22;;;;;;;7.13;4.25;;;10.40;99.90;;;;;;5029023;28;20109;-61
2022/03/14 02:55:48;;;;;;;5.40;4.60;;;10.60;99.90;;;;;;5026760;28;20022;-62
2022/03/14 02:58:14;;;;;;;6.63;4.60;;;;;;;;;;5024499;28;20132;-60
2022/03/14 03:00:40;;;;;;;6.40;4.53;;;10.50;99.90;;;;;;5026654;28;20063;-60
2022/03/14 03:03:06;;;;;;;10.10;4.97;;;10.90;99.90;;;;;;5030566;28;20017;-60
2022/03/14 03:05:34;;;;;;;7.15;5.10;;;10.50;99.90;;;;;;5029177;28;20884;-61
2022/03/14 03:08:01;;;;;;;7.05;4.63;;;10.40;99.90;;;;;;5022883;28;20094;-60
2022/03/14 03:10:28;;;;;;;9.48;5.18;;;10.30;99.90;;;;;;5029685;28;20413;-60
2022/03/14 03:12:57;;;;;;;7.95;5.10;;;;;;;;;;5029596;28;20124;-60
2022/03/14 03:15:25;;;;;;;7.47;4.80;;;10.40;99.90;;;;;;5027296;28;20124;-60
2022/03/14 03:17:52;;;;;;;7.88;5.63;;;10.50;99.90;;;;;;5028621;28;20477;-59
2022/03/14 03:20:18;;;;;;;7.43;6.10;;;10.40;99.90;;;;;;5027203;28;20044;-59
2022/03/14 03:22:43;;;;;;;7.40;5.65;;;10.40;99.90;;;;;;5026427;28;20860;-59
2022/03/14 03:25:09;;;;;;;9.73;5.75;;;10.40;99.90;;;;;;5026472;28;20649;-61
2022/03/14 03:27:37;;;;;;;8.70;5.90;;;;;;;;;;5025819;28;20036;-61
2022/03/14 03:30:05;;;;;;;8.48;5.68;;;10.20;99.90;;;;;;5025822;28;20037;-61
2022/03/14 03:32:34;;;;;;;7.40;5.38;;;10.20;99.90;;;;;;5027943;28;20411;-60
2022/03/14 03:35:02;;;;;;;8.35;6.00;;;10.20;99.90;;;;;;5025298;28;20030;-61
2022/03/14 03:37:30;;;;;;;10.43;6.50;;;;;;;;;;5027104;28;20032;-60
2022/03/14 03:39:55;;;;;;;9.93;6.38;;;10.30;99.90;;;;;;5029915;28;20036;-62
2022/03/14 03:42:21;;;;;;;8.48;5.78;;;10.30;99.90;;;;;;5023527;28;20076;-61
2022/03/14 03:44:48;;;;;;;8.20;6.30;;;;;;;;;;5028124;28;20029;-60
2022/03/14 03:47:13;;;;;;;9.70;6.55;;;9.70;99.90;;;;;;5024999;28;20057;-61
2022/03/14 03:49:39;;;;;;;10.63;6.78;;;10.30;99.90;;;;;;5028443;28;20514;-62
2022/03/14 03:52:06;;;;;;;8.25;6.22;;;10.20;99.90;;;;;;5032341;28;20425;-62
2022/03/14 03:54:32;;;;;;;8.57;6.60;;;;;;;;;;5026645;28;20696;-62
2022/03/14 03:56:58;;;;;;;7.35;5.97;;;10.40;99.90;;;;;;5032148;28;20040;-61
2022/03/14 03:59:24;;;;;;;9.32;6.57;;;;;;;;;;5024238;28;20396;-62
2022/03/14 04:01:50;;;;;;;8.07;6.13;;;9.40;99.90;;;;;;5026823;28;20398;-61
2022/03/14 04:04:16;;;;;;;8.90;6.25;;;10.50;99.90;;;;;;5028264;28;20101;-62
2022/03/14 04:06:42;;;;;;;8.20;6.38;;;10.10;99.90;;;;;;5025379;28;20730;-62
2022/03/14 04:09:10;;;;;;;8.88;6.70;;;10.00;99.90;;;;;;5029058;28;20055;-61
2022/03/14 04:11:41;;;;;;;9.07;7.00;;;10.00;99.90;;;;;;5025863;28;20024;-61
2022/03/14 04:14:10;;;;;;;8.75;7.03;;;;;;;;;;5032444;28;20112;-61
2022/03/14 04:16:41;;;;;;;7.82;6.50;;;;;;;;;;5023301;28;20021;-61
2022/03/14 04:19:07;;;;;;;10.65;7.05;;;10.00;99.90;;;;;;5026618;28;20064;-61
2022/03/14 04:21:37;;;;;;;8.68;6.72;;;;;;;;;;5026129;28;20691;-61
2022/03/14 04:24:06;;;;;;;8.98;7.10;;;10.00;99.90;;;;;;5029413;28;20017;-61
2022/03/14 04:26:32;;;;;;;10.48;7.60;;;10.10;99.90;;;;;;5022536;28;20026;-61
2022/03/14 04:28:57;;;;;;;8.98;6.75;;;10.00;99.90;;;;;;5029420;28;20361;-61
2022/03/14 04:31:23;;;;;;;10.98;7.13;;;9.90;99.90;;;;;;5027152;28;20116;-61
2022/03/14 04:33:48;;;;;;;10.20;7.65;;;9.90;99.90;;;;;;5026426;28;20385;-60
2022/03/14 04:36:14;;;;;;;10.18;7.20;;;9.80;99.90;;;;;;5024684;28;20393;-61
2022/03/14 04:38:40;;;;;;;10.85;7.15;;;9.70;99.90;;;;;;5024067;28;20392;-60
2022/03/14 04:41:06;;;;;;;8.68;6.95;;;9.50;99.90;;;;;;5027361;28;20021;-61
2022/03/14 04:43:31;;;;;;;8.18;6.70;;;9.40;99.90;;;;;;5027676;28;20605;-60
2022/03/14 04:45:57;;;;;;;8.82;6.30;;;9.30;99.90;;;;;;5025958;28;20021;-60
2022/03/14 04:48:23;;;;;;;14.23;7.65;;;9.30;99.90;;;;;;5032457;28;20028;-60
2022/03/14 04:50:50;;;;;;;7.78;6.63;;;9.30;99.90;;;;;;5028734;28;20040;-60
2022/03/14 04:53:16;;;;;;;7.82;5.97;;;9.30;99.90;;;;;;5026252;28;20496;-60
2022/03/14 04:55:42;;;;;;;7.75;5.93;;;9.30;99.90;;;;;;5029239;28;20079;-60
2022/03/14 04:58:12;;;;;;;7.03;5.57;;;9.30;99.90;;;;;;5028381;28;20040;-60
2022/03/14 05:00:38;;;;;;;7.85;6.20;;;9.30;99.90;;;;;;5024352;28;20025;-60
2022/03/14 05:03:05;;;;;;;6.25;5.20;;;9.60;99.90;;;;;;5027793;28;20060;-59
2022/03/14 05:05:31;;;;;;;8.13;5.45;;;9.40;99.90;;;;;;5021444;28;20128;-60
2022/03/14 05:07:57;;;;;;;7.55;5.40;;;9.50;99.90;;;;;;5026601;28;20101;-59
2022/03/14 05:10:23;;;;;;;7.93;5.50;;;9.60;99.90;;;;;;5021042;28;20132;-60
2022/03/14 05:12:49;;;;;;;8.27;5.45;;;9.50;99.90;;;;;;5025736;28;20087;-60
2022/03/14 05:15:16;;;;;;;7.00;5.00;;;9.50;99.90;;;;;;5031061;28;20525;-59
2022/03/14 05:17:42;;;;;;;4.78;4.28;;;;;;;;;;5034309;28;20029;-59
2022/03/14 05:20:09;;;;;;;6.85;5.03;;;;;;;;;;5035251;28;20566;-59
2022/03/14 05:22:41;;;;;;;7.90;5.40;;;;;;;;;;5031431;28;20021;-59
2022/03/14 05:25:07;;;;;;;8.00;5.50;;;;;;;;;;5030386;28;20022;-60
2022/03/14 05:27:33;;;;;;;6.88;4.55;;;;;;;;;;5026006;28;20037;-60
2022/03/14 05:29:59;;;;;;;7.97;4.90;;;;;;;;;;5030021;28;20039;-58
2022/03/14 05:32:25;;;;;;;6.20;4.57;;;;;;;;;;5030054;28;20025;-59
2022/03/14 05:34:51;;;;;;;6.75;4.53;;;;;;;;;;5029596;28;20128;-60
2022/03/14 05:37:19;;;;;;;6.32;4.70;;;;;;;;;;5030112;28;20029;-60
2022/03/14 05:39:45;;;;;;;6.18;4.22;;;;;;;;;;5028144;28;20053;-59
2022/03/14 05:42:11;;;;;;;7.80;4.50;;;;;;;;;;5027029;28;20022;-59
2022/03/14 05:44:37;;;;;;;8.15;4.88;;;;;;;;;;5030427;28;20328;-59
2022/03/14 05:47:03;;;;;;;4.88;4.28;;;;;;;;;;5026837;28;20033;-59
2022/03/14 05:49:29;;;;;;;6.30;4.43;;;;;;;;;;5029529;28;20544;-58
2022/03/14 05:51:55;;;;;;;7.80;4.32;;;;;;;;;;5036799;28;20038;-58
2022/03/14 05:54:23;;;;;;;6.22;4.53;;;;;;;;;;5031571;28;20025;-60
2022/03/14 05:56:48;;;;;;;8.25;4.75;;;;;;;;;;5037170;28;20018;-59
2022/03/14 05:59:14;;;;;;;7.40;4.50;;;;;;;;;;5033690;28;20021;-59
2022/03/14 06:01:41;;;;;;;5.47;4.40;;;;;;;;;;5026855;28;20040;-59
2022/03/14 06:04:07;;;;;;;6.07;4.32;;;;;;;;;;5027251;28;20381;-59
2022/03/14 06:06:34;;;;;;;7.95;4.65;;;;;;;;;;5026917;28;20032;-60
2022/03/14 06:09:00;;;;;;;7.45;4.35;;;;;;;;;;5026091;28;20036;-58
2022/03/14 06:11:27;;;;;;;6.45;4.55;;;;;;;;;;5025916;28;20029;-58
2022/03/14 06:13:53;;;;;;;7.15;4.53;;;;;;;;;;5028879;28;20477;-59
2022/03/14 06:16:21;;;;;;;8.05;5.13;;;;;;;;;;5027669;28;20083;-59
2022/03/14 06:18:47;;;;;;;7.80;5.47;;;;;;;;;;5028093;28;20029;-59
2022/03/14 06:21:13;;;;;;;7.50;5.60;;;;;;;;;;5025587;28;20036;-59
2022/03/14 06:23:39;;;;;;;6.35;5.22;;;;;;;;;;5028246;28;20018;-59
2022/03/14 06:26:05;;;;;;;9.40;5.65;;;;;;;;;;5030670;28;20625;-59
2022/03/14 06:28:31;;;;;;;9.23;5.75;;;;;;;;;;5024884;28;20432;-59
2022/03/14 06:30:57;;;;;;;8.82;6.25;;;;;;;;;;5025432;28;20029;-59
2022/03/14 06:33:23;;;;;;;10.38;6.43;;;;;;;;;;5028177;28;20025;-62
2022/03/14 06:35:50;;;;;;;11.20;6.57;;;;;;;;;;5025668;28;20032;-59
2022/03/14 06:38:16;;;;;;;8.73;6.80;;;;;;;;;;5023534;28;20038;-60
2022/03/14 06:40:42;;;;;;;10.35;7.57;;;;;;;;;;5024809;28;20030;-60
2022/03/14 06:43:11;;;;;;;13.38;7.50;;;;;;;;;;5022624;28;20071;-59
2022/03/14 06:45:38;;;;;;;11.57;7.72;;;;;;;;;;5020071;28;20025;-59
2022/03/14 06:48:05;;;;;;;10.65;7.80;;;;;;;;;;5024956;28;20104;-60
2022/03/14 06:50:32;;;;;;;14.38;8.32;;;;;;;;;;5026123;28;20098;-60
2022/03/14 06:52:58;;;;;;;14.73;8.63;;;;;;;;;;5025924;28;20680;-59
2022/03/14 06:55:24;;;;;;;11.93;8.73;;;;;;;;;;5029122;28;20040;-59
2022/03/14 06:57:50;;;;;;;13.68;8.50;;;;;;;;;;5031462;28;20025;-59
2022/03/14 07:00:17;;;;;;;14.10;9.30;;;;;;;;;;5020186;28;20025;-60
2022/03/14 07:02:43;;;;;;;11.30;8.73;;;;;;;;;;5028213;28;20069;-59
2022/03/14 07:05:13;;;;;;;14.35;8.52;;;;;;;;;;5032619;28;20049;-59
2022/03/14 07:07:40;;;;;;;16.30;9.38;;;;;;;;;;5031483;28;20056;-59
2022/03/14 07:10:07;;;;;;;12.07;9.45;;;;;;;;;;5028007;28;20060;-59
2022/03/14 07:12:37;;;;;;;12.30;8.98;;;;;;;;;;5028057;28;20116;-59
2022/03/14 07:15:03;;;;;;;15.38;9.57;;;;;;;;;;5027965;28;20108;-59
2022/03/14 07:17:28;;;;;;;14.02;8.63;;;;;;;;;;5029301;28;20112;-59
2022/03/14 07:19:54;;;;;;;13.43;9.18;;;;;;;;;;5022700;28;20025;-60
2022/03/14 07:22:21;;;;;;;12.75;8.70;;;;;;;;;;5025017;28;20205;-59
2022/03/14 07:24:47;;;;;;;15.45;9.48;;;;;;;;;;5024895;28;20043;-59
2022/03/14 07:27:15;;;;;;;14.52;9.35;;;;;;;;;;5022895;28;20025;-59
2022/03/14 07:29:41;;;;;;;19.42;9.63;;;;;;;;;;5026776;28;20628;-58
2022/03/14 07:32:07;;;;;;;14.82;9.75;;;;;;;;;;5024430;28;20044;-59
2022/03/14 07:34:33;;;;;;;24.35;11.85;;;;;;;;;;5027331;28;20037;-59
2022/03/14 07:36:59;;;;;;;15.35;10.02;;;;;;;;;;5025431;28;20083;-58
2022/03/14 07:39:25;;;;;;;15.00;9.43;;;;;;;;;;5024420;28;20021;-59
2022/03/14 07:41:51;;;;;;;14.50;10.13;;;;;;;;;;5029717;28;20022;-58
2022/03/14 07:44:17;;;;;;;13.85;9.30;;;;;;;;;;5027448;28;20037;-59
2022/03/14 07:46:43;;;;;;;21.02;8.95;;;;;;;;;;5030231;28;20022;-59
2022/03/14 07:49:10;;;;;;;16.08;9.45;;;;;;;;;;5027486;28;20025;-58
2022/03/14 07:51:36;;;;;;;19.05;8.98;;;;;;;;;;5026953;28;20033;-58
2022/03/14 07:54:02;;;;;;;18.15;9.50;;;;;;;;;;5038789;28;20400;-58
2022/03/14 07:56:28;;;;;;;18.00;9.23;;;;;;;;;;5023196;28;20036;-59
2022/03/14 07:58:54;;;;;;;15.45;9.23;;;;;;;;;;5028367;28;20179;-58
2022/03/14 08:01:20;;;;;;;13.90;9.57;;;;;;;;;;5027764;28;20485;-58
2022/03/14 08:03:46;;;;;;;17.88;10.38;;;;;;;;;;5026870;28;20525;-57
2022/03/14 08:06:17;;;;;;;17.67;10.02;;;;;;;;;;5030012;28;20033;-59
2022/03/14 08:08:43;;;;;;;16.33;9.32;;;;;;;;;;5030199;28;20025;-58
2022/03/14 08:11:09;;;;;;;18.33;9.75;;;;;;;;;;5025249;28;20621;-59
2022/03/14 08:13:36;;;;;;;14.75;10.10;;;;;;;;;;5025313;28;20113;-58
2022/03/14 08:16:03;;;;;;;18.83;9.35;;;;;;;;;;5039152;28;20082;-58
2022/03/14 08:18:29;;;;;;;15.38;8.77;;;;;;;;;;5031073;28;20060;-59
2022/03/14 08:20:57;;;;;;;13.73;8.73;;;;;;;;;;5027450;28;20088;-57
2022/03/14 08:23:23;;;;;;;16.33;9.45;;;;;;;;;;5024520;28;20022;-58
2022/03/14 08:25:49;;;;;;;16.38;9.43;;;;;;;;;;5023518;28;20026;-58
2022/03/14 08:28:15;;;;;;;17.20;8.60;;;;;;;;;;5024597;28;20071;-59
2022/03/14 08:30:42;;;;;;;15.63;9.02;;;;;;;;;;5025125;28;20025;-58
2022/03/14 08:33:08;;;;;;;13.85;8.48;;;;;;;;;;5030420;28;20048;-58
2022/03/14 08:35:34;;;;;;;19.33;8.70;;;;;;;;;;5022505;28;20020;-58
2022/03/14 08:38:01;;;;;;;14.88;8.23;;;;;;;;;;5024755;28;20700;-57
2022/03/14 08:40:28;;;;;;;17.50;8.50;;;;;;;;;;5025299;28;20029;-58
2022/03/14 08:42:54;;;;;;;15.05;8.25;;;;;;;;;;5023058;28;20049;-58
2022/03/14 08:45:21;;;;;;;14.40;7.95;;;;;;;;;;5023791;28;20627;-58
2022/03/14 08:47:47;;;;;;;16.13;8.38;;;;;;;;;;5023387;28;20497;-57
2022/03/14 08:50:14;;;;;;;14.98;7.93;;;;;;;;;;5024152;28;20482;-58
2022/03/14 08:52:40;;;;;;;14.15;7.10;;;;;;;;;;5029304;28;20036;-58
2022/03/14 08:55:07;;;;;;;11.35;7.50;;;;;;;;;;5028981;28;20036;-58
2022/03/14 08:57:33;;;;;;;15.07;7.75;;;;;;;;;;5025205;28;20052;-58
2022/03/14 08:59:59;;;;;;;14.43;7.30;;;;;;;;;;5024491;28;20036;-57
2022/03/14 09:02:26;;;;;;;12.60;7.38;;;;;;;;;;5028893;28;20031;-58
2022/03/14 09:04:52;;;;;;;11.18;7.00;;;;;;;;;;5027964;28;20040;-58
2022/03/14 09:07:28;;;;;;;14.82;6.80;;;;;;;;;;5030097;28;20103;-58
2022/03/14 09:09:54;;;;;;;13.65;6.70;;;;;;;;;;5026812;28;20040;-57
2022/03/14 09:12:20;;;;;;;13.02;6.45;;;;;;;;;;5027404;28;20029;-57
2022/03/14 09:14:46;;;;;;;9.52;6.40;;;;;;;;;;5026304;28;20029;-58
2022/03/14 09:17:13;;;;;;;15.05;6.50;;;;;;;;;;5029716;28;20112;-57
2022/03/14 09:19:40;;;;;;;10.32;6.40;;;;;;;;;;5034770;28;20191;-56
2022/03/14 09:22:09;;;;;;;13.52;6.75;;;;;;;;;;5031703;28;20029;-57
2022/03/14 09:24:36;;;;;;;12.25;6.35;;;;;;;;;;5030439;28;20026;-58
2022/03/14 09:27:02;;;;;;;11.60;6.05;;;;;;;;;;5031557;28;20033;-57
2022/03/14 09:29:28;;;;;;;13.73;6.15;;;;;;;;;;5027036;28;20111;-57
2022/03/14 09:31:55;;;;;;;15.48;6.07;;;;;;;;;;5026690;28;20025;-58
2022/03/14 09:34:21;;;;;;;11.82;5.28;;;;;;;;;;5027785;28;20116;-57
2022/03/14 09:36:48;;;;;;;10.85;5.68;;;;;;;;;;5031109;28;20501;-57
2022/03/14 09:39:15;;;;;;;13.18;5.35;;;;;;;;;;5028761;28;20488;-57
2022/03/14 09:41:41;;;;;;;9.65;4.65;;;;;;;;;;5033034;28;20033;-57
2022/03/14 09:44:09;;;;;;;7.93;4.82;;;;;;;;;;5035931;28;20105;-58
2022/03/14 09:46:36;;;;;;;12.23;5.57;;;;;;;;;;5029874;28;20017;-57
2022/03/14 09:49:02;;;;;;;9.48;5.00;;;;;;;;;;5034535;28;20444;-58
2022/03/14 09:51:28;;;;;;;11.95;5.15;;;;;;;;;;5033057;28;20041;-57
2022/03/14 09:53:55;;;;;;;10.73;5.20;;;;;;;;;;5027748;28;20048;-58
2022/03/14 09:56:21;;;;;;;11.18;5.60;;;;;;;;;;5027425;28;20504;-57
2022/03/14 09:58:47;;;;;;;9.75;5.35;;;;;;;;;;5023840;28;20477;-58
2022/03/14 10:01:13;;;;;;;13.32;5.95;;;;;;;;;;5033581;28;20021;-58
2022/03/14 10:03:39;;;;;;;15.98;6.05;;;;;;;;;;5031354;28;20013;-57
2022/03/14 10:06:06;;;;;;;9.50;5.80;;;;;;;;;;5035294;28;20503;-57
2022/03/14 10:08:33;;;;;;;11.05;6.32;;;;;;;;;;5033992;28;20017;-57
2022/03/14 10:10:59;;;;;;;16.38;6.22;;;;;;;;;;5032349;28;20737;-57
2022/03/14 10:13:25;;;;;;;16.67;6.78;;;;;;;;;;5029821;28;20057;-58
2022/03/14 10:15:51;;;;;;;13.02;6.30;;;;;;;;;;5037813;28;20029;-58
2022/03/14 10:18:18;;;;;;;9.82;5.75;;;;;;;;;;5033476;28;21096;-57
2022/03/14 10:20:57;;;;;;;11.82;6.28;;;;;;;;;;5029689;28;20025;-57
2022/03/14 10:23:30;;;;;;;13.27;6.32;;;;;;;;;;5034239;28;20617;-57
2022/03/14 10:25:58;;;;;;;9.15;6.30;;;;;;;;;;5028028;28;20107;-58
2022/03/14 10:28:27;;;;;;;11.65;6.78;;;;;;;;;;5029725;28;20035;-58
2022/03/14 10:30:53;;;;;;;14.55;6.28;;;;;;;;;;5025082;28;20031;-58
2022/03/14 10:33:23;;;;;;;15.80;6.68;;;;;;;;;;5030514;28;20083;-56
2022/03/14 10:35:49;;;;;;;11.23;6.53;;;;;;;;;;5026471;28;20025;-57
2022/03/14 10:38:19;;;;;;;11.27;6.60;;;;;;;;;;5039636;28;20025;-58
2022/03/14 10:40:46;;;;;;;15.80;6.40;;;;;;;;;;5033239;28;20025;-57
2022/03/14 10:43:21;;;;;;;12.95;6.20;;;;;;;;;;5034880;28;20104;-58
2022/03/14 10:45:47;;;;;;;13.25;5.60;;;;;;;;;;5029462;28;20063;-58
2022/03/14 10:48:14;;;;;;;16.52;5.97;;;;;;;;;;5041244;28;20041;-57
2022/03/14 10:50:40;;;;;;;11.30;5.90;;;;;;;;;;5035597;28;20114;-57
2022/03/14 10:53:20;;;;;;;13.63;5.80;;;;;;;;;;5029160;28;20041;-56
2022/03/14 10:55:46;;;;;;;12.35;5.72;;;;;;;;;;5024313;28;20167;-57
2022/03/14 10:58:13;;;;;;;12.00;5.60;;;;;;;;;;5031361;28;20816;-58
2022/03/14 11:00:49;;;;;;;11.82;5.70;;;;;;;;;;5022952;28;20029;-57
2022/03/14 11:03:25;;;;;;;11.05;5.57;;;;;;;;;;5030837;28;20472;-58
2022/03/14 11:05:58;;;;;;;9.38;5.95;;;;;;;;;;5030505;28;20018;-57
2022/03/14 11:08:30;;;;;;;13.60;5.75;;;;;;;;;;5029276;28;20051;-58
2022/03/14 11:10:56;;;;;;;12.48;5.82;;;;;;;;;;5022758;28;20262;-57
2022/03/14 11:13:23;;;;;;;10.45;5.50;;;;;;;;;;5032164;28;20497;-58
2022/03/14 11:15:49;;;;;;;8.60;5.05;;;;;;;;;;5025510;28;20083;-57
2022/03/14 11:18:17;;;;;;;14.05;5.72;;;;;;;;;;5027538;28;20041;-57
2022/03/14 11:20:43;;;;;;;12.73;5.50;;;;;;;;;;5025966;28;20032;-57
2022/03/14 11:23:12;;;;;;;9.32;5.57;;;;;;;;;;5026164;28;20108;-58
2022/03/14 11:25:39;;;;;;;11.10;5.32;;;;;;;;;;5025846;28;20071;-58
2022/03/14 11:28:06;;;;;;;7.88;5.15;;;;;;;;;;5030347;28;20033;-58
2022/03/14 11:30:36;;;;;;;11.77;5.90;;;;;;;;;;5024146;28;20530;-57
2022/03/14 11:33:03;;;;;;;11.15;5.07;;;;;;;;;;5024127;28;20033;-58
2022/03/14 11:35:30;;;;;;;9.68;5.07;;;;;;;;;;5024559;28;20029;-57
2022/03/14 11:37:56;;;;;;;10.60;5.07;;;;;;;;;;5024525;28;20024;-56
2022/03/14 11:40:23;;;;;;;11.20;4.68;;;;;;;;;;5019340;28;20026;-58
2022/03/14 11:42:49;;;;;;;9.90;5.18;;;;;;;;;;5025967;28;20083;-58
2022/03/14 11:45:15;;;;;;;13.85;4.72;;;;;;;;;;5020442;28;20392;-56
2022/03/14 11:47:42;;;;;;;9.27;4.47;;;;;;;;;;5023719;28;20065;-58
2022/03/14 11:50:08;;;;;;;9.00;4.28;;;;;;;;;;5024857;28;20033;-57
2022/03/14 11:52:39;;;;;;;9.68;4.53;;;;;;;;;;5026628;28;20057;-58
2022/03/14 11:55:15;;;;;;;8.05;4.70;;;;;;;;;;5025494;28;20711;-58
2022/03/14 11:57:41;;;;;;;12.45;4.50;;;;;;;;;;5026454;28;20112;-58
2022/03/14 12:00:33;;;;;;;9.68;4.80;;;;;;;;;;5024849;28;20051;-57
2022/03/14 12:03:01;;;;;;;10.45;4.97;;;;;;;;;;5029735;28;20013;-58
2022/03/14 12:05:33;;;;;;;11.68;5.07;;;;;;;;;;5025020;28;20045;-58
2022/03/14 12:08:00;;;;;;;9.27;5.30;;;;;;;;;;5027396;28;20465;-58
2022/03/14 12:10:32;;;;;;;8.55;4.85;;;;;;;;;;5025033;28;20393;-57
2022/03/14 12:12:58;;;;;;;9.90;5.05;;;;;;;;;;5030596;28;20032;-58
2022/03/14 12:15:44;;;;;;;9.75;5.60;;;;;;;;;;5025059;28;20064;-57
2022/03/14 12:18:26;;;;;;;15.05;5.47;;;;;;;;;;5029930;28;20111;-57
2022/03/14 12:20:55;;;;;;;8.52;5.10;;;;;;;;;;5026038;28;20014;-57
2022/03/14 12:23:27;;;;;;;10.32;5.28;;;;;;;;;;5029034;28;20179;-58
2022/03/14 12:25:53;;;;;;;10.73;5.30;;;;;;;;;;5024280;28;20037;-57
2022/03/14 12:28:29;;;;;;;10.02;6.30;;;;;;;;;;5026700;28;20032;-57
2022/03/14 12:31:00;;;;;;;10.60;6.43;;;;;;;;;;5026777;28;20095;-58
2022/03/14 12:33:31;;;;;;;9.20;5.88;;;;;;;;;;5024700;28;20519;-56
2022/03/14 12:35:57;;;;;;;12.68;6.05;;;;;;;;;;5032228;28;20021;-57
2022/03/14 12:38:23;;;;;;;14.82;6.88;;;;;;;;;;5034660;28;20021;-56
2022/03/14 12:40:56;;;;;;;9.88;5.60;;;;;;;;;;5030147;28;20032;-57
2022/03/14 12:43:23;;;;;;;9.18;5.78;;;;;;;;;;5026983;28;20021;-58
2022/03/14 12:45:54;;;;;;;9.02;5.88;;;;;;;;;;5031139;28;20025;-58
2022/03/14 12:48:21;;;;;;;10.02;5.53;;;;;;;;;;5029415;28;20029;-57
2022/03/14 12:50:52;;;;;;;13.32;5.53;;;;;;;;;;5033125;28;20048;-57
2022/03/14 12:53:19;;;;;;;12.18;5.43;;;;;;;;;;5030821;28;20033;-57
2022/03/14 12:55:49;;;;;;;9.27;5.90;;;;;;;;;;5036669;28;20052;-58
2022/03/14 12:58:33;;;;;;;8.00;5.22;;;;;;;;;;5026669;28;20029;-57
2022/03/14 13:01:00;;;;;;;10.75;5.68;;;;;;;;;;5020976;28;20029;-58
2022/03/14 13:03:28;;;;;;;11.68;6.00;;;;;;;;;;5027037;28;20036;-58
2022/03/14 13:05:54;;;;;;;12.20;5.95;;;;;;;;;;5034310;28;20491;-57
2022/03/14 13:08:20;;;;;;;7.75;5.05;;;;;;;;;;5022219;28;20056;-58
2022/03/14 13:10:47;;;;;;;12.25;5.97;;;;;;;;;;5031654;28;20471;-57
2022/03/14 13:13:22;;;;;;;11.05;5.90;;;;;;;;;;5032400;28;20036;-57
2022/03/14 13:16:01;;;;;;;11.43;5.70;;;;;;;;;;5024387;28;20033;-56
2022/03/14 13:18:27;;;;;;;8.70;5.38;;;;;;;;;;5030737;28;20032;-58
2022/03/14 13:20:53;;;;;;;12.77;6.30;;;;;;;;;;5026077;28;20025;-57
2022/03/14 13:23:20;;;;;;;9.88;5.82;;;;;;;;;;5028758;28;20041;-58
2022/03/14 13:25:50;;;;;;;11.43;5.90;;;;;;;;;;5027852;28;20036;-58
2022/03/14 13:28:28;;;;;;;12.25;6.20;;;;;;;;;;5026372;28;20039;-57
2022/03/14 13:30:56;;;;;;;10.63;6.28;;;;;;;;;;5020742;28;20037;-58
2022/03/14 13:33:24;;;;;;;12.95;6.72;;;;;;;;;;5026214;28;20029;-58
2022/03/14 13:35:50;;;;;;;11.70;6.35;;;;;;;;;;5027662;28;20104;-56
2022/03/14 13:38:36;;;;;;;10.52;6.10;;;12.60;99.90;;;;;;5031426;28;20075;-58
2022/03/14 13:41:13;;;;;;;10.27;6.15;;;12.50;99.90;;;;;;5030786;28;20290;-58
2022/03/14 13:43:41;;;;;;;9.35;5.80;;;12.60;99.90;;;;;;5023335;28;20021;-58
2022/03/14 13:46:30;;;;;;;12.23;5.85;;;12.70;99.90;;;;;;5038819;28;20028;-56
2022/03/14 13:49:02;;;;;;;11.27;6.40;;;12.70;99.90;;;;;;5036627;28;20020;-58
2022/03/14 13:51:35;;;;;;;10.20;6.07;;;12.80;99.90;;;;;;5033121;28;20489;-57